East Charleston, Pennsylvania
Current Conditions -  °F | °C
As of 1:55 PM on Thursday 23 Oct 2014 (Local Time) from KN38 Reporting Station
Overcast Overcast  
Wind Chill: 54°   Ceiling: 3000
Heat Index: 54°   Visibility: 10mi
Dew Point: 41°   Wind: 25mph
Humidity: 62%   Direction: 350°N
Pressure: 29.93"   Gusts: 35mph
Location:  41.8345°N, 77.0538°W
Report Text: KN38 231755Z AUTO 35022G30KT 10SM OVC030 12/05 A2993 RMK AO2
Loading
Personal Weather Stations






























Interactive Weather Map New forecast layout! Learn more

10-Day Weather Forecast

Advertisements
Track Severe Weather on mobile